Time;durP1;ratioP1;P1;durP2;ratioP2;P2;SDS_P1;SDS_P2;PMS_P1;PMS_P2;Temp;Humidity;BMP_temperature;BMP_pressure;BME280_temperature;BME280_humidity;BME280_pressure;Samples;Min_cycle;Max_cycle;Signal;HPM_P1;HPM_P2
2022/01/22 00:01:34;;;;;;;2.05;1.17;;;25.50;51.20;;;;;;5028959;28;20200;-43
2022/01/22 00:04:05;;;;;;;2.72;1.52;;;25.50;51.20;;;;;;5041191;28;20213;-43
2022/01/22 00:06:35;;;;;;;3.28;1.25;;;25.50;51.20;;;;;;5031372;28;20266;-43
2022/01/22 00:09:07;;;;;;;3.20;1.23;;;25.50;51.20;;;;;;5031005;28;20710;-45
2022/01/22 00:11:50;;;;;;;2.97;1.30;;;25.50;51.20;;;;;;5031835;28;20588;-43
2022/01/22 00:14:26;;;;;;;1.27;0.90;;;25.60;51.30;;;;;;5015109;28;20262;-43
2022/01/22 00:16:58;;;;;;;4.15;1.40;;;25.60;51.10;;;;;;5031492;28;20659;-47
2022/01/22 00:19:29;;;;;;;2.15;1.00;;;25.70;51.30;;;;;;5031472;28;20200;-47
2022/01/22 00:22:00;;;;;;;3.85;1.40;;;25.70;51.40;;;;;;5031960;28;20204;-49
2022/01/22 00:24:37;;;;;;;1.52;1.13;;;25.70;51.50;;;;;;5031399;28;20220;-49
2022/01/22 00:27:09;;;;;;;2.28;1.10;;;25.70;51.50;;;;;;5031381;28;20199;-43
2022/01/22 00:29:40;;;;;;;2.60;1.10;;;25.80;51.50;;;;;;5031503;28;20660;-45
2022/01/22 00:32:11;;;;;;;2.45;1.30;;;25.80;51.50;;;;;;5031246;28;20282;-44
2022/01/22 00:34:41;;;;;;;4.43;1.50;;;25.80;51.50;;;;;;5034611;28;20219;-43
2022/01/22 00:37:12;;;;;;;4.55;1.65;;;25.90;51.50;;;;;;5030741;28;20208;-44
2022/01/22 00:39:43;;;;;;;2.83;1.38;;;25.90;51.40;;;;;;5023018;28;20227;-44
2022/01/22 00:42:16;;;;;;;2.05;1.30;;;25.90;51.40;;;;;;5031340;28;20204;-44
2022/01/22 00:44:49;;;;;;;2.70;1.25;;;26.00;51.30;;;;;;5030833;28;20314;-43
2022/01/22 00:47:20;;;;;;;2.70;1.20;;;26.00;51.20;;;;;;5030923;28;20204;-43
2022/01/22 00:49:51;;;;;;;3.70;1.40;;;26.00;51.20;;;;;;5035467;28;20725;-45
2022/01/22 00:52:21;;;;;;;1.85;1.13;;;26.00;51.20;;;;;;5035239;28;20201;-51
2022/01/22 00:54:52;;;;;;;2.55;1.20;;;26.10;51.20;;;;;;5030447;28;20293;-50
2022/01/22 00:57:25;;;;;;;4.00;1.60;;;26.10;51.10;;;;;;5030609;28;20582;-51
2022/01/22 00:59:57;;;;;;;2.65;1.40;;;26.10;51.10;;;;;;5030967;28;20200;-52
2022/01/22 01:02:28;;;;;;;2.65;1.10;;;26.10;50.90;;;;;;5030149;28;20205;-50
2022/01/22 01:04:58;;;;;;;4.90;1.63;;;26.10;51.00;;;;;;5034619;28;20219;-48
2022/01/22 01:07:30;;;;;;;2.17;1.33;;;26.20;51.00;;;;;;5029214;28;20208;-43
2022/01/22 01:10:01;;;;;;;2.88;1.40;;;26.20;51.20;;;;;;5030833;28;20726;-54
2022/01/22 01:12:36;;;;;;;2.95;1.40;;;26.20;51.20;;;;;;5030546;28;20251;-55
2022/01/22 01:15:19;;;;;;;3.97;1.88;;;26.20;51.30;;;;;;5013192;28;20228;-53
2022/01/22 01:23:24;;;;;;;4.05;1.38;;;26.30;51.30;;;;;;5029821;28;20222;-51
2022/01/22 01:32:16;;;;;;;3.42;1.45;;;26.40;51.00;;;;;;5029347;28;20211;-44
2022/01/22 01:34:49;;;;;;;3.10;1.17;;;26.50;51.00;;;;;;5021106;28;20328;-44
2022/01/22 01:42:36;;;;;;;3.22;1.30;;;26.50;50.70;;;;;;5445037;23;20245;-43
2022/01/22 01:45:10;;;;;;;3.10;1.10;;;26.50;50.60;;;;;;4960363;28;20258;-42
2022/01/22 01:47:44;;;;;;;3.05;1.20;;;26.50;50.50;;;;;;4953038;28;20198;-43
2022/01/22 01:50:15;;;;;;;1.80;1.30;;;26.50;50.50;;;;;;4941550;28;20267;-45
2022/01/22 01:52:49;;;;;;;2.95;1.20;;;26.50;50.40;;;;;;4952895;28;20262;-45
2022/01/22 01:55:32;;;;;;;2.17;1.63;;;26.60;50.40;;;;;;4952397;28;20246;-42
2022/01/22 01:58:01;;;;;;;2.85;1.10;;;26.60;50.50;;;;;;4952087;28;20206;-42
2022/01/22 02:00:34;;;;;;;4.25;1.40;;;26.60;50.50;;;;;;4952748;28;20199;-42
2022/01/22 02:03:05;;;;;;;2.75;1.48;;;26.60;50.50;;;;;;4952673;28;20695;-41
2022/01/22 02:05:36;;;;;;;4.22;1.38;;;26.60;50.50;;;;;;4952383;28;20226;-41
2022/01/22 02:08:12;;;;;;;3.33;1.50;;;26.70;50.50;;;;;;4952375;28;20198;-41
2022/01/22 02:10:47;;;;;;;2.70;1.20;;;26.70;50.50;;;;;;4952517;28;20290;-42
2022/01/22 02:24:44;;;;;;;3.28;1.35;;;26.80;50.30;;;;;;4941555;28;20226;-45
2022/01/22 02:27:15;;;;;;;3.20;1.42;;;26.80;50.20;;;;;;4951659;28;20195;-42
2022/01/22 02:29:46;;;;;;;2.92;1.45;;;26.80;50.40;;;;;;4952261;28;20203;-43
2022/01/22 02:32:50;;;;;;;2.90;1.30;;;26.80;50.10;;;;;;4951870;28;20202;-43
2022/01/22 02:35:26;;;;;;;3.45;1.38;;;26.80;50.10;;;;;;4951411;28;20235;-43
2022/01/22 02:38:03;;;;;;;2.05;1.35;;;26.80;50.00;;;;;;4952014;28;20583;-42
2022/01/22 02:40:43;;;;;;;3.45;1.50;;;26.80;50.00;;;;;;4951397;28;20202;-43
2022/01/22 02:43:14;;;;;;;2.92;1.40;;;26.80;50.00;;;;;;4951218;28;20206;-42
2022/01/22 02:45:46;;;;;;;2.47;1.40;;;26.80;49.90;;;;;;4950310;28;20695;-43
2022/01/22 02:48:17;;;;;;;2.58;1.35;;;26.90;50.00;;;;;;4951741;28;20253;-42
2022/01/22 02:50:48;;;;;;;2.38;1.30;;;26.90;50.00;;;;;;4951515;28;20624;-42
2022/01/22 02:53:21;;;;;;;3.25;1.42;;;26.80;49.90;;;;;;4951808;28;20206;-44
2022/01/22 02:55:52;;;;;;;3.42;1.17;;;26.90;50.00;;;;;;4951736;28;20265;-43
2022/01/22 02:58:23;;;;;;;2.25;1.33;;;26.90;50.00;;;;;;4951422;28;20213;-43
2022/01/22 03:00:53;;;;;;;2.13;1.17;;;26.80;49.90;;;;;;4951577;28;20203;-49
2022/01/22 03:03:24;;;;;;;2.42;1.30;;;26.90;50.00;;;;;;4951336;28;20242;-43
2022/01/22 03:05:55;;;;;;;3.30;1.20;;;26.90;50.00;;;;;;4951067;28;20223;-44
2022/01/22 03:08:28;;;;;;;2.28;1.27;;;26.90;50.50;;;;;;4951193;28;20261;-43
2022/01/22 03:11:01;;;;;;;1.85;1.38;;;26.90;49.90;;;;;;4951731;28;20811;-44
2022/01/22 03:16:33;;;;;;;3.13;1.40;;;26.90;49.90;;;;;;4949345;29;20194;-46
2022/01/22 03:19:09;;;;;;;2.42;1.30;;;26.90;49.90;;;;;;4951061;28;20210;-43
2022/01/22 03:21:44;;;;;;;4.10;1.38;;;26.90;49.80;;;;;;4951597;28;20202;-42
2022/01/22 03:27:23;;;;;;;1.85;0.90;;;26.90;49.70;;;;;;4950856;29;20206;-43
2022/01/22 03:29:54;;;;;;;3.50;1.42;;;26.90;49.70;;;;;;4951234;28;20203;-43
2022/01/22 03:32:27;;;;;;;2.60;1.30;;;26.90;49.70;;;;;;4951325;28;20229;-42
2022/01/22 03:35:07;;;;;;;2.55;1.27;;;26.90;49.70;;;;;;4951183;28;20321;-43
2022/01/22 03:37:38;;;;;;;2.95;1.38;;;26.90;49.70;;;;;;4951783;28;20538;-43
2022/01/22 03:40:13;;;;;;;1.92;1.13;;;26.90;49.70;;;;;;4952924;28;20195;-42
2022/01/22 03:42:44;;;;;;;2.78;1.38;;;26.90;49.70;;;;;;4954064;28;20721;-43
2022/01/22 03:45:15;;;;;;;2.30;1.25;;;26.80;49.60;;;;;;4954395;28;20278;-43
2022/01/22 03:47:46;;;;;;;3.53;1.65;;;26.90;49.70;;;;;;4954442;28;20246;-43
2022/01/22 03:50:19;;;;;;;2.33;1.25;;;26.90;49.70;;;;;;4954478;28;20273;-45
2022/01/22 03:52:50;;;;;;;2.42;1.10;;;26.90;49.70;;;;;;4954642;28;20203;-43
2022/01/22 03:55:34;;;;;;;2.05;1.10;;;26.90;49.70;;;;;;4954645;28;20231;-42
2022/01/22 03:58:04;;;;;;;1.80;1.10;;;26.90;49.70;;;;;;4954177;28;20203;-43
2022/01/22 04:00:35;;;;;;;3.17;1.20;;;26.90;49.70;;;;;;4954583;28;20608;-42
2022/01/22 04:06:05;;;;;;;1.50;1.10;;;26.80;49.60;;;;;;4952633;29;20648;-42
2022/01/22 04:08:34;;;;;;;2.47;1.20;;;26.80;49.60;;;;;;4954839;28;20205;-42
2022/01/22 04:11:10;;;;;;;2.15;1.27;;;26.90;49.60;;;;;;4954752;28;20238;-44
2022/01/22 04:13:40;;;;;;;1.65;1.00;;;26.90;49.60;;;;;;4954271;28;20198;-43
2022/01/22 04:16:13;;;;;;;2.65;1.20;;;26.80;49.50;;;;;;4954662;28;20281;-43
2022/01/22 04:27:11;;;;;;;2.13;1.17;;;26.80;49.50;;;;;;4954194;29;20733;-42
2022/01/22 04:29:42;;;;;;;2.50;1.30;;;26.80;49.50;;;;;;4954032;29;20211;-43
2022/01/22 04:32:13;;;;;;;4.57;1.52;;;26.80;49.60;;;;;;4954329;28;20370;-43
2022/01/22 04:34:43;;;;;;;2.60;1.40;;;26.80;49.60;;;;;;4953849;28;20582;-44
2022/01/22 04:37:14;;;;;;;3.05;1.23;;;26.80;49.60;;;;;;4951611;28;20612;-43
2022/01/22 04:39:44;;;;;;;2.83;1.38;;;26.80;49.60;;;;;;4954232;28;20265;-43
2022/01/22 04:42:17;;;;;;;2.17;1.25;;;26.70;49.60;;;;;;4953836;28;20210;-42
2022/01/22 04:44:55;;;;;;;1.98;1.17;;;26.70;49.70;;;;;;4953956;29;20222;-42
2022/01/22 04:47:41;;;;;;;1.65;1.10;;;26.70;49.60;;;;;;4954511;28;20568;-43
2022/01/22 04:55:43;;;;;;;2.88;1.20;;;26.70;49.70;;;;;;4953096;29;20233;-46
2022/01/22 04:58:15;;;;;;;3.45;1.70;;;26.70;49.50;;;;;;4952620;28;20725;-44
2022/01/22 05:00:47;;;;;;;3.72;1.35;;;26.70;49.50;;;;;;4953857;28;20245;-42
2022/01/22 05:03:18;;;;;;;3.00;1.60;;;26.70;49.60;;;;;;4953823;28;20203;-43
2022/01/22 05:05:48;;;;;;;4.03;1.80;;;26.70;49.60;;;;;;4953003;28;20757;-45
2022/01/22 05:08:19;;;;;;;3.83;1.65;;;26.70;49.90;;;;;;4953351;28;20836;-43
2022/01/22 05:10:49;;;;;;;2.70;1.45;;;26.60;49.60;;;;;;4953563;28;20226;-42
2022/01/22 05:13:22;;;;;;;3.65;1.60;;;26.60;49.60;;;;;;4953055;28;20238;-44
2022/01/22 05:15:52;;;;;;;3.30;1.80;;;26.60;49.60;;;;;;4952823;28;20828;-42
2022/01/22 05:18:23;;;;;;;2.53;1.40;;;26.60;49.60;;;;;;4953083;28;20199;-43
2022/01/22 05:21:01;;;;;;;4.30;1.83;;;26.60;49.70;;;;;;4953055;28;20199;-43
2022/01/22 05:23:32;;;;;;;2.80;1.67;;;26.50;49.60;;;;;;4953124;28;20210;-42
2022/01/22 05:26:05;;;;;;;3.65;1.70;;;26.50;49.60;;;;;;4952858;28;20223;-44
2022/01/22 05:29:02;;;;;;;3.55;1.67;;;26.50;49.60;;;;;;4952307;28;20198;-43
2022/01/22 05:31:41;;;;;;;4.40;1.65;;;26.50;49.70;;;;;;4952556;28;20250;-47
2022/01/22 05:37:03;;;;;;;3.33;1.65;;;26.50;49.70;;;;;;4953399;29;20578;-51
2022/01/22 05:39:35;;;;;;;3.47;1.88;;;26.50;49.70;;;;;;4952521;28;20659;-45
2022/01/22 05:42:09;;;;;;;5.47;1.92;;;26.50;49.70;;;;;;4952711;28;20210;-43
2022/01/22 05:44:41;;;;;;;3.45;1.73;;;26.50;49.70;;;;;;4952400;28;20222;-42
2022/01/22 05:47:14;;;;;;;3.70;1.88;;;26.50;49.70;;;;;;4952840;28;20199;-42
2022/01/22 05:49:45;;;;;;;3.72;1.65;;;26.40;49.70;;;;;;4952691;28;20202;-49
2022/01/22 05:52:21;;;;;;;4.00;1.48;;;26.40;49.70;;;;;;4952697;28;20651;-42
2022/01/22 06:00:24;;;;;;;2.83;1.60;;;26.40;49.80;;;;;;4952719;29;20206;-43
2022/01/22 06:02:55;;;;;;;3.97;1.58;;;26.30;49.70;;;;;;4952106;28;20274;-45
2022/01/22 06:05:26;;;;;;;3.97;1.80;;;26.30;49.80;;;;;;4952748;28;20219;-44
2022/01/22 06:07:57;;;;;;;4.35;1.80;;;26.30;49.90;;;;;;4952784;28;20241;-48
2022/01/22 06:10:29;;;;;;;3.65;1.77;;;26.30;49.90;;;;;;4952634;28;20203;-42
2022/01/22 06:13:11;;;;;;;4.40;1.90;;;26.20;49.90;;;;;;4952143;28;20198;-41
2022/01/22 06:15:44;;;;;;;5.25;2.05;;;26.20;49.90;;;;;;4952168;28;20237;-45
2022/01/22 06:18:14;;;;;;;4.45;2.10;;;26.20;49.90;;;;;;4952786;28;20270;-45
2022/01/22 06:20:45;;;;;;;4.95;2.20;;;26.20;49.90;;;;;;4951912;28;20199;-47
2022/01/22 06:23:15;;;;;;;4.25;1.90;;;26.20;50.00;;;;;;4952056;28;20198;-41
2022/01/22 06:25:46;;;;;;;4.10;2.15;;;26.20;50.00;;;;;;4951897;28;20271;-53
2022/01/22 06:28:16;;;;;;;4.88;2.08;;;26.10;50.00;;;;;;4951895;28;20199;-46
2022/01/22 06:30:49;;;;;;;4.30;2.13;;;26.10;50.00;;;;;;4952267;28;20194;-52
2022/01/22 06:33:19;;;;;;;3.85;1.70;;;26.10;50.00;;;;;;4951188;28;20726;-44
2022/01/22 06:35:50;;;;;;;5.40;2.20;;;26.10;50.00;;;;;;4951398;28;20223;-44
2022/01/22 06:38:21;;;;;;;7.65;2.17;;;26.10;50.00;;;;;;4952385;28;20195;-43
2022/01/22 06:43:38;;;;;;;3.95;1.88;;;26.10;50.00;;;;;;4950905;29;20206;-47
2022/01/22 06:46:10;;;;;;;5.57;2.20;;;26.10;50.10;;;;;;4947505;28;20191;-44
2022/01/22 06:48:41;;;;;;;6.07;1.85;;;26.00;50.00;;;;;;4932462;29;20211;-41
2022/01/22 06:51:11;;;;;;;4.63;2.15;;;26.00;50.00;;;;;;4932765;29;20207;-42
2022/01/22 06:53:42;;;;;;;4.30;2.10;;;26.00;50.10;;;;;;4932557;29;20723;-45
2022/01/22 06:56:18;;;;;;;5.25;2.22;;;25.90;50.00;;;;;;4932615;29;20884;-46
2022/01/22 06:58:49;;;;;;;3.30;1.95;;;25.90;50.10;;;;;;4937263;29;20202;-47
2022/01/22 07:01:22;;;;;;;4.32;1.80;;;25.90;50.10;;;;;;4951601;28;20202;-48
2022/01/22 07:03:52;;;;;;;3.47;1.98;;;25.90;50.20;;;;;;4948350;28;20706;-46
2022/01/22 07:06:23;;;;;;;5.00;2.00;;;25.90;50.20;;;;;;4951149;28;20254;-43
2022/01/22 07:08:54;;;;;;;4.82;2.05;;;25.90;50.20;;;;;;4951018;28;20194;-44
2022/01/22 07:11:24;;;;;;;5.53;2.13;;;25.80;50.10;;;;;;4951466;28;20258;-46
2022/01/22 07:13:55;;;;;;;4.28;1.88;;;25.80;50.10;;;;;;4951270;28;20251;-49
2022/01/22 07:16:27;;;;;;;4.85;2.03;;;25.80;50.10;;;;;;4954801;28;20234;-45
2022/01/22 07:19:00;;;;;;;9.27;3.70;;;25.80;50.20;;;;;;4954793;28;20199;-42
2022/01/22 07:21:32;;;;;;;10.15;4.10;;;25.80;50.50;;;;;;4955381;28;20198;-43
2022/01/22 07:26:49;;;;;;;8.35;3.20;;;25.80;50.70;;;;;;4955468;29;20194;-41
2022/01/22 07:29:20;;;;;;;6.75;2.78;;;25.70;50.70;;;;;;4954423;28;20250;-50
2022/01/22 07:31:53;;;;;;;6.95;2.88;;;25.70;50.70;;;;;;4954852;29;20203;-43
2022/01/22 07:34:24;;;;;;;8.00;2.88;;;25.70;50.70;;;;;;4954653;28;20218;-45
2022/01/22 07:36:54;;;;;;;5.80;2.65;;;25.60;50.70;;;;;;4954875;28;20231;-42
2022/01/22 07:39:25;;;;;;;6.20;2.78;;;25.70;50.70;;;;;;4954823;28;20202;-47
2022/01/22 07:41:55;;;;;;;5.30;2.50;;;25.60;50.70;;;;;;4955018;29;20206;-41
2022/01/22 07:44:26;;;;;;;7.38;2.70;;;25.60;50.70;;;;;;4954885;28;20247;-42
2022/01/22 07:47:00;;;;;;;5.78;2.90;;;25.60;50.70;;;;;;4954940;28;20210;-41
2022/01/22 07:49:30;;;;;;;6.47;2.55;;;25.50;50.60;;;;;;4954737;28;20659;-44
2022/01/22 07:52:01;;;;;;;7.88;2.70;;;25.50;50.70;;;;;;4954683;28;20199;-46
2022/01/22 07:54:32;;;;;;;6.78;2.38;;;25.50;50.70;;;;;;4954545;28;20222;-43
2022/01/22 07:57:02;;;;;;;8.18;2.30;;;25.50;50.70;;;;;;4954518;28;20650;-42
2022/01/22 07:59:34;;;;;;;6.35;2.75;;;25.50;50.70;;;;;;4954000;28;20199;-46
2022/01/22 08:02:08;;;;;;;6.18;2.80;;;25.50;50.70;;;;;;4953919;28;20202;-41
2022/01/22 08:04:39;;;;;;;6.93;2.85;;;25.50;50.70;;;;;;4953726;28;20219;-49
2022/01/22 08:07:10;;;;;;;4.40;2.30;;;25.40;50.60;;;;;;4953959;28;20207;-47
2022/01/22 08:09:40;;;;;;;6.45;2.47;;;25.40;50.70;;;;;;4954183;28;20201;-44
2022/01/22 08:12:12;;;;;;;5.72;2.53;;;25.40;50.70;;;;;;4953879;28;20195;-43
2022/01/22 08:14:42;;;;;;;4.72;2.20;;;25.40;50.70;;;;;;4953211;28;20652;-49
2022/01/22 08:17:15;;;;;;;5.32;2.40;;;25.40;50.70;;;;;;4953812;28;20289;-47
2022/01/22 08:19:46;;;;;;;6.22;2.70;;;25.40;50.70;;;;;;4954230;28;20203;-45
2022/01/22 08:22:17;;;;;;;5.43;2.55;;;25.30;50.70;;;;;;4954311;28;20285;-41
2022/01/22 08:24:47;;;;;;;5.72;2.33;;;25.40;50.80;;;;;;4954023;28;20222;-48
2022/01/22 08:27:31;;;;;;;5.28;2.30;;;25.30;50.70;;;;;;4953649;28;20203;-44
2022/01/22 08:30:02;;;;;;;5.32;2.58;;;25.30;50.70;;;;;;4953488;28;20265;-49
2022/01/22 08:32:57;;;;;;;4.38;1.98;;;25.30;50.80;;;;;;4953626;28;20266;-47
2022/01/22 08:38:13;;;;;;;4.25;2.50;;;25.20;50.70;;;;;;4954089;29;20198;-54
2022/01/22 08:45:54;;;;;;;4.93;2.17;;;25.10;50.70;;;;;;5689594;23;20319;-40
2022/01/22 08:48:27;;;;;;;6.45;2.35;;;25.10;50.80;;;;;;4992485;28;20194;-47
2022/01/22 08:50:57;;;;;;;5.80;2.53;;;25.10;50.80;;;;;;4992938;28;20221;-50
2022/01/22 08:53:28;;;;;;;5.00;2.33;;;25.10;50.80;;;;;;4992650;28;20650;-40
2022/01/22 08:56:00;;;;;;;4.75;2.08;;;25.10;50.90;;;;;;4977405;28;20230;-42
2022/01/22 08:58:30;;;;;;;5.18;2.10;;;25.10;50.90;;;;;;4968269;28;20194;-41
2022/01/22 09:01:01;;;;;;;4.03;2.17;;;25.10;50.90;;;;;;4970324;28;20194;-49
2022/01/22 09:03:34;;;;;;;5.38;2.58;;;25.10;50.90;;;;;;4971242;28;20202;-42
2022/01/22 09:06:08;;;;;;;4.85;2.40;;;25.00;51.00;;;;;;4966404;28;20226;-50
2022/01/22 09:08:38;;;;;;;4.53;2.28;;;25.00;51.00;;;;;;4968749;28;20252;-42
2022/01/22 09:11:09;;;;;;;6.07;2.60;;;25.00;51.00;;;;;;4970080;28;20194;-41
2022/01/22 09:13:40;;;;;;;5.38;2.30;;;25.00;51.00;;;;;;4969421;28;20250;-41
2022/01/22 09:16:10;;;;;;;3.95;2.20;;;24.90;51.00;;;;;;4969598;28;20632;-41
2022/01/22 09:18:44;;;;;;;5.10;2.30;;;24.90;51.00;;;;;;4969689;28;20210;-41
2022/01/22 09:21:14;;;;;;;5.35;2.80;;;24.90;51.10;;;;;;4969775;28;20539;-52
2022/01/22 09:23:45;;;;;;;3.97;2.15;;;24.90;51.10;;;;;;4969850;28;20746;-50
2022/01/22 09:26:15;;;;;;;7.00;2.78;;;24.90;51.20;;;;;;4970249;28;20288;-54
2022/01/22 09:28:46;;;;;;;5.70;2.30;;;24.80;51.10;;;;;;4969493;28;20198;-40
2022/01/22 09:31:17;;;;;;;5.43;2.40;;;24.80;51.10;;;;;;4969459;28;20198;-44
2022/01/22 09:33:50;;;;;;;3.97;2.15;;;24.80;51.20;;;;;;4968319;28;20206;-51
2022/01/22 09:36:20;;;;;;;4.75;2.28;;;24.80;51.20;;;;;;4969569;28;20632;-50
2022/01/22 09:38:51;;;;;;;4.32;2.33;;;24.80;51.20;;;;;;4968209;28;20203;-45
2022/01/22 09:41:26;;;;;;;4.70;2.20;;;24.70;51.20;;;;;;4969868;28;20257;-44
2022/01/22 09:43:57;;;;;;;5.60;2.25;;;24.70;51.20;;;;;;4969680;28;20252;-42
2022/01/22 09:46:29;;;;;;;3.90;2.20;;;24.70;51.50;;;;;;4969485;28;20226;-53
2022/01/22 09:49:01;;;;;;;5.60;2.75;;;24.70;51.30;;;;;;4969051;28;20206;-41
2022/01/22 09:51:32;;;;;;;5.53;2.72;;;24.70;51.30;;;;;;4968844;28;20253;-41
2022/01/22 09:54:02;;;;;;;5.15;2.45;;;24.70;51.30;;;;;;4969783;28;20218;-46
2022/01/22 09:56:33;;;;;;;4.13;2.30;;;24.70;51.40;;;;;;4968221;28;20277;-41
2022/01/22 09:59:03;;;;;;;5.60;2.47;;;24.70;51.40;;;;;;4968155;28;20724;-41
2022/01/22 10:01:35;;;;;;;4.32;2.40;;;24.60;51.40;;;;;;4967434;28;20202;-41
2022/01/22 10:04:09;;;;;;;4.50;2.25;;;24.60;51.40;;;;;;4969422;28;20818;-52
2022/01/22 10:06:53;;;;;;;4.90;2.40;;;24.60;51.50;;;;;;4969442;28;20191;-44
2022/01/22 10:09:33;;;;;;;7.55;2.70;;;24.50;51.50;;;;;;4968542;28;20202;-46
2022/01/22 10:12:16;;;;;;;5.47;2.30;;;24.50;51.50;;;;;;4969151;28;20193;-45
2022/01/22 10:15:08;;;;;;;5.78;2.50;;;24.50;51.50;;;;;;4967025;28;20226;-44
2022/01/22 10:17:49;;;;;;;5.82;2.72;;;24.50;51.60;;;;;;4961542;28;20214;-41
2022/01/22 10:20:39;;;;;;;5.10;2.80;;;24.50;51.60;;;;;;4968010;28;20198;-46
2022/01/22 10:23:18;;;;;;;4.70;2.50;;;24.40;51.60;;;;;;4968544;28;20379;-47
2022/01/22 10:25:54;;;;;;;5.50;2.60;;;24.40;51.60;;;;;;4968352;28;20232;-51
2022/01/22 10:28:26;;;;;;;6.35;2.40;;;24.40;51.60;;;;;;4968706;28;20276;-45
2022/01/22 10:30:59;;;;;;;6.15;2.92;;;24.40;51.60;;;;;;4968203;28;20202;-49
2022/01/22 10:33:32;;;;;;;4.47;2.58;;;24.40;51.70;;;;;;4967222;28;20210;-49
2022/01/22 10:36:17;;;;;;;3.45;2.22;;;24.30;51.70;;;;;;4967473;28;20225;-48
2022/01/22 10:38:49;;;;;;;4.05;2.22;;;24.30;51.70;;;;;;4969497;28;20206;-43
2022/01/22 10:41:34;;;;;;;6.90;3.00;;;24.30;51.70;;;;;;4968509;28;20273;-44
2022/01/22 10:44:05;;;;;;;3.70;2.42;;;24.30;51.70;;;;;;4967979;28;20218;-57
2022/01/22 10:46:48;;;;;;;5.60;2.75;;;24.30;51.70;;;;;;4965824;28;20209;-50
2022/01/22 10:49:20;;;;;;;5.25;2.53;;;24.30;51.80;;;;;;4968332;28;20276;-51
2022/01/22 10:51:54;;;;;;;5.35;2.67;;;24.30;51.80;;;;;;4968952;28;20225;-45
2022/01/22 10:54:27;;;;;;;5.80;2.80;;;24.20;51.80;;;;;;4968496;28;20221;-47
2022/01/22 10:57:12;;;;;;;4.68;2.60;;;24.20;51.80;;;;;;4968528;28;20275;-41
2022/01/22 10:59:49;;;;;;;5.90;2.38;;;24.20;51.90;;;;;;4966664;28;20249;-43
2022/01/22 11:02:20;;;;;;;5.32;2.60;;;24.20;51.90;;;;;;4968769;28;20197;-41
2022/01/22 11:04:51;;;;;;;5.38;2.53;;;24.20;51.90;;;;;;4968278;28;20217;-41
2022/01/22 11:07:23;;;;;;;4.43;2.58;;;24.20;51.90;;;;;;4970967;28;20205;-40
2022/01/22 11:09:54;;;;;;;6.13;2.92;;;24.10;51.90;;;;;;4972382;28;20670;-41
2022/01/22 11:12:25;;;;;;;4.85;2.40;;;24.10;51.90;;;;;;4969547;28;20198;-40
2022/01/22 11:14:56;;;;;;;4.03;2.58;;;24.10;52.00;;;;;;4969574;28;20689;-44
2022/01/22 11:17:32;;;;;;;4.10;2.42;;;24.10;52.00;;;;;;4969813;28;20308;-43
2022/01/22 11:20:05;;;;;;;6.78;2.50;;;24.10;52.00;;;;;;4970204;28;20256;-40
2022/01/22 11:22:37;;;;;;;3.95;2.35;;;24.10;52.00;;;;;;4968701;28;20198;-41
2022/01/22 11:25:08;;;;;;;5.32;2.33;;;24.10;52.00;;;;;;4968624;28;20278;-43
2022/01/22 11:27:40;;;;;;;5.70;2.70;;;24.00;51.90;;;;;;4969064;28;20206;-42
2022/01/22 11:30:15;;;;;;;4.93;2.60;;;24.00;52.00;;;;;;4969860;28;20210;-49
2022/01/22 11:32:48;;;;;;;4.35;2.50;;;24.00;52.00;;;;;;4969584;28;20209;-41
2022/01/22 11:35:23;;;;;;;4.72;2.85;;;24.00;52.00;;;;;;4969969;28;20796;-46
2022/01/22 11:38:00;;;;;;;3.58;2.55;;;24.00;52.00;;;;;;4969742;28;20229;-40
2022/01/22 11:40:33;;;;;;;4.57;2.72;;;24.00;52.10;;;;;;4969877;28;20246;-40
2022/01/22 11:43:06;;;;;;;4.63;2.50;;;24.00;52.10;;;;;;4969793;28;20595;-43
2022/01/22 11:45:42;;;;;;;4.63;2.60;;;24.00;52.10;;;;;;4969481;28;20230;-39
2022/01/22 11:48:19;;;;;;;4.85;2.50;;;23.90;52.10;;;;;;4970481;28;20297;-49
2022/01/22 11:50:51;;;;;;;4.63;2.45;;;23.90;52.10;;;;;;4969654;28;20343;-40
2022/01/22 11:53:29;;;;;;;4.47;2.78;;;23.90;52.10;;;;;;4952968;28;20253;-44
2022/01/22 11:56:24;;;;;;;5.70;2.70;;;23.90;52.10;;;;;;4954449;28;20218;-43
2022/01/22 11:59:43;;;;;;;2.33;1.90;;;23.90;52.10;;;;;;4969808;28;20198;-46
2022/01/22 12:02:17;;;;;;;4.75;2.50;;;23.80;52.10;;;;;;4924902;29;20203;-40
2022/01/22 12:05:05;;;;;;;4.35;2.25;;;23.80;52.10;;;;;;4965834;28;20272;-45
2022/01/22 12:07:37;;;;;;;3.58;2.17;;;23.80;52.10;;;;;;4972177;28;20250;-41
2022/01/22 12:10:36;;;;;;;5.00;2.55;;;23.80;52.00;;;;;;4973575;28;20206;-40
2022/01/22 12:16:13;;;;;;;3.83;2.50;;;23.80;52.10;;;;;;4949678;28;20230;-41
2022/01/22 12:18:54;;;;;;;3.35;2.28;;;23.80;52.00;;;;;;4972862;28;20269;-40
2022/01/22 12:21:36;;;;;;;4.25;2.25;;;23.80;52.10;;;;;;4972800;28;20197;-52
2022/01/22 12:24:09;;;;;;;3.28;2.03;;;23.70;52.70;;;;;;4972666;28;20265;-46
2022/01/22 12:26:50;;;;;;;3.78;2.33;;;23.70;52.10;;;;;;4972105;28;20236;-46
2022/01/22 12:29:35;;;;;;;4.15;2.22;;;23.70;52.20;;;;;;4970586;28;20206;-40
2022/01/22 12:32:20;;;;;;;3.80;2.45;;;23.70;52.20;;;;;;4971846;28;20202;-47
2022/01/22 12:35:18;;;;;;;3.92;2.50;;;23.70;52.20;;;;;;4956569;28;20210;-42
2022/01/22 12:38:02;;;;;;;4.75;2.40;;;23.70;52.20;;;;;;4970702;28;20249;-45
2022/01/22 12:40:34;;;;;;;6.05;2.55;;;23.70;52.20;;;;;;4972693;28;20281;-53
2022/01/22 12:43:13;;;;;;;4.70;2.50;;;23.70;52.20;;;;;;4972354;28;20202;-49
2022/01/22 12:45:47;;;;;;;3.75;2.40;;;23.70;52.20;;;;;;4972114;28;20317;-52
2022/01/22 12:48:18;;;;;;;3.15;2.08;;;23.70;52.30;;;;;;4972269;28;20202;-44
2022/01/22 12:50:49;;;;;;;4.05;2.22;;;23.70;52.30;;;;;;4972664;28;20277;-40
2022/01/22 12:53:20;;;;;;;4.32;2.50;;;23.60;52.20;;;;;;4972352;28;20595;-48
2022/01/22 12:58:44;;;;;;;5.00;2.47;;;23.60;52.20;;;;;;4972083;28;20289;-50
2022/01/22 13:01:26;;;;;;;3.72;2.38;;;23.60;52.20;;;;;;4971409;28;20203;-39
2022/01/22 13:03:58;;;;;;;3.85;1.85;;;23.60;52.20;;;;;;4965855;28;20187;-46
2022/01/22 13:06:39;;;;;;;3.03;2.22;;;23.60;52.20;;;;;;4971653;28;20202;-40
2022/01/22 13:09:11;;;;;;;5.18;2.40;;;23.60;52.80;;;;;;4972048;28;20276;-41
2022/01/22 13:11:48;;;;;;;4.75;2.70;;;23.60;52.30;;;;;;4971568;28;20256;-50
2022/01/22 13:14:27;;;;;;;4.00;2.13;;;23.50;52.30;;;;;;4972072;28;20225;-41
2022/01/22 13:16:59;;;;;;;4.65;2.42;;;23.60;52.30;;;;;;4971990;28;20280;-41
2022/01/22 13:19:32;;;;;;;4.75;2.65;;;23.50;52.30;;;;;;4971596;28;20777;-44
2022/01/22 13:22:04;;;;;;;3.92;2.25;;;23.60;52.40;;;;;;4971457;28;20830;-42
2022/01/22 13:24:36;;;;;;;3.33;2.30;;;23.50;52.30;;;;;;4971181;28;20230;-40
2022/01/22 13:27:11;;;;;;;4.93;2.40;;;23.50;52.30;;;;;;4971388;28;20202;-45
2022/01/22 13:29:51;;;;;;;4.47;2.70;;;23.50;52.30;;;;;;4971679;28;20236;-41
2022/01/22 13:32:31;;;;;;;4.45;2.28;;;23.50;52.40;;;;;;4971024;28;20240;-45
2022/01/22 13:35:15;;;;;;;4.95;2.53;;;23.40;52.30;;;;;;4971196;28;20300;-40
2022/01/22 13:49:21;;;;;;;4.07;2.33;;;23.40;52.30;;;;;;4970896;28;20213;-42
2022/01/22 13:51:52;;;;;;;4.28;2.45;;;23.40;52.30;;;;;;4970828;28;20202;-40
2022/01/22 13:54:28;;;;;;;3.40;2.03;;;23.40;52.30;;;;;;4971775;28;20218;-48
2022/01/22 13:57:02;;;;;;;2.30;1.95;;;23.40;52.30;;;;;;4970968;28;20272;-47
2022/01/22 13:59:34;;;;;;;3.83;2.30;;;23.40;52.30;;;;;;4971057;28;20205;-41
2022/01/22 14:02:15;;;;;;;4.03;2.58;;;23.40;52.40;;;;;;4971094;28;20202;-40
2022/01/22 14:04:50;;;;;;;3.40;2.17;;;23.30;52.30;;;;;;4954421;28;20249;-44
2022/01/22 14:07:26;;;;;;;3.50;2.20;;;23.40;52.40;;;;;;4958699;28;20205;-42
2022/01/22 14:10:02;;;;;;;4.28;2.38;;;23.30;52.40;;;;;;4955481;28;20203;-42
2022/01/22 14:12:38;;;;;;;3.20;2.15;;;23.30;52.30;;;;;;4970642;28;20613;-44
2022/01/22 14:15:15;;;;;;;4.20;2.63;;;23.30;52.30;;;;;;4970964;28;20228;-41
2022/01/22 14:18:14;;;;;;;2.80;2.17;;;23.30;52.40;;;;;;4970749;28;20312;-47
2022/01/22 14:20:47;;;;;;;3.55;2.30;;;23.30;52.40;;;;;;4970319;28;20202;-43
2022/01/22 14:23:19;;;;;;;3.42;2.42;;;23.30;52.30;;;;;;4970381;28;20265;-51
2022/01/22 14:26:01;;;;;;;3.08;2.10;;;23.30;52.30;;;;;;4970753;28;20276;-45
2022/01/22 14:28:46;;;;;;;4.03;2.30;;;23.30;52.40;;;;;;4970952;28;20268;-42
2022/01/22 14:31:31;;;;;;;3.08;2.00;;;23.30;52.40;;;;;;4970746;28;20268;-45
2022/01/22 14:34:05;;;;;;;3.28;2.25;;;23.20;52.30;;;;;;4970461;28;20237;-49
2022/01/22 14:36:40;;;;;;;4.68;2.30;;;23.30;52.40;;;;;;4970945;28;20194;-41
2022/01/22 14:39:26;;;;;;;3.65;2.55;;;23.30;52.50;;;;;;4956105;28;20214;-44
2022/01/22 14:44:46;;;;;;;2.92;2.00;;;23.20;52.40;;;;;;4970141;28;20368;-41
2022/01/22 14:47:18;;;;;;;3.30;2.40;;;23.20;52.40;;;;;;4969991;28;20206;-47
2022/01/22 14:49:51;;;;;;;4.13;2.05;;;23.20;52.40;;;;;;4970470;28;20277;-40
2022/01/22 14:52:25;;;;;;;3.58;2.22;;;23.20;52.60;;;;;;4970269;28;20195;-52
2022/01/22 14:54:57;;;;;;;3.30;2.13;;;23.20;52.50;;;;;;4969681;28;20230;-40
2022/01/22 14:57:31;;;;;;;3.60;2.20;;;23.20;52.60;;;;;;4969629;28;20274;-51